sensor_id;sensor_type;location;lat;lon;timestamp;P1;durP1;ratioP1;P2;durP2;ratioP2
85318;SDS011;75722;49.004;12.120;2024-03-02T00:02:00;65.55;;;21.40;;
85318;SDS011;75722;49.004;12.120;2024-03-02T00:04:26;71.50;;;22.52;;
85318;SDS011;75722;49.004;12.120;2024-03-02T00:06:54;64.90;;;21.73;;
85318;SDS011;75722;49.004;12.120;2024-03-02T00:09:20;59.40;;;20.92;;
85318;SDS011;75722;49.004;12.120;2024-03-02T00:11:45;67.88;;;20.67;;
85318;SDS011;75722;49.004;12.120;2024-03-02T00:14:11;75.43;;;21.63;;
85318;SDS011;75722;49.004;12.120;2024-03-02T00:16:37;68.85;;;20.98;;
85318;SDS011;75722;49.004;12.120;2024-03-02T00:19:03;60.45;;;20.23;;
85318;SDS011;75722;49.004;12.120;2024-03-02T00:21:31;66.45;;;19.88;;
85318;SDS011;75722;49.004;12.120;2024-03-02T00:23:58;67.07;;;19.80;;
85318;SDS011;75722;49.004;12.120;2024-03-02T00:26:25;63.80;;;20.92;;
85318;SDS011;75722;49.004;12.120;2024-03-02T00:28:50;60.50;;;20.77;;
85318;SDS011;75722;49.004;12.120;2024-03-02T00:31:21;68.22;;;22.65;;
85318;SDS011;75722;49.004;12.120;2024-03-02T00:33:47;70.80;;;20.50;;
85318;SDS011;75722;49.004;12.120;2024-03-02T00:36:14;70.35;;;20.48;;
85318;SDS011;75722;49.004;12.120;2024-03-02T00:38:50;70.53;;;21.60;;
85318;SDS011;75722;49.004;12.120;2024-03-02T00:46:22;66.43;;;21.75;;
85318;SDS011;75722;49.004;12.120;2024-03-02T00:51:24;62.63;;;21.33;;
85318;SDS011;75722;49.004;12.120;2024-03-02T00:53:51;66.35;;;22.17;;
85318;SDS011;75722;49.004;12.120;2024-03-02T00:56:18;52.97;;;18.80;;
85318;SDS011;75722;49.004;12.120;2024-03-02T00:58:44;63.75;;;21.85;;
85318;SDS011;75722;49.004;12.120;2024-03-02T01:01:09;73.15;;;21.80;;
85318;SDS011;75722;49.004;12.120;2024-03-02T01:03:35;61.83;;;21.05;;
85318;SDS011;75722;49.004;12.120;2024-03-02T01:06:00;66.43;;;22.00;;
85318;SDS011;75722;49.004;12.120;2024-03-02T01:08:26;65.72;;;20.30;;
85318;SDS011;75722;49.004;12.120;2024-03-02T01:10:51;63.80;;;20.75;;
85318;SDS011;75722;49.004;12.120;2024-03-02T01:13:17;67.18;;;19.85;;
85318;SDS011;75722;49.004;12.120;2024-03-02T01:15:42;63.20;;;21.05;;
85318;SDS011;75722;49.004;12.120;2024-03-02T01:18:08;54.88;;;18.42;;
85318;SDS011;75722;49.004;12.120;2024-03-02T01:20:34;60.55;;;19.98;;
85318;SDS011;75722;49.004;12.120;2024-03-02T01:22:59;55.50;;;18.98;;
85318;SDS011;75722;49.004;12.120;2024-03-02T01:25:25;56.08;;;18.38;;
85318;SDS011;75722;49.004;12.120;2024-03-02T01:27:54;53.00;;;18.60;;
85318;SDS011;75722;49.004;12.120;2024-03-02T01:30:19;61.20;;;19.25;;
85318;SDS011;75722;49.004;12.120;2024-03-02T01:32:44;56.05;;;18.98;;
85318;SDS011;75722;49.004;12.120;2024-03-02T01:35:10;56.00;;;19.20;;
85318;SDS011;75722;49.004;12.120;2024-03-02T01:37:35;53.97;;;17.75;;
85318;SDS011;75722;49.004;12.120;2024-03-02T01:40:01;53.92;;;17.05;;
85318;SDS011;75722;49.004;12.120;2024-03-02T01:42:27;57.00;;;18.98;;
85318;SDS011;75722;49.004;12.120;2024-03-02T01:44:53;52.10;;;17.17;;
85318;SDS011;75722;49.004;12.120;2024-03-02T01:47:18;53.60;;;18.50;;
85318;SDS011;75722;49.004;12.120;2024-03-02T01:49:44;54.22;;;18.58;;
85318;SDS011;75722;49.004;12.120;2024-03-02T01:52:09;47.42;;;17.27;;
85318;SDS011;75722;49.004;12.120;2024-03-02T01:54:35;43.20;;;16.80;;
85318;SDS011;75722;49.004;12.120;2024-03-02T01:57:00;50.73;;;17.50;;
85318;SDS011;75722;49.004;12.120;2024-03-02T01:59:25;55.83;;;17.00;;
85318;SDS011;75722;49.004;12.120;2024-03-02T02:01:51;57.33;;;19.30;;
85318;SDS011;75722;49.004;12.120;2024-03-02T02:04:17;53.97;;;17.65;;
85318;SDS011;75722;49.004;12.120;2024-03-02T02:06:43;51.33;;;17.88;;
85318;SDS011;75722;49.004;12.120;2024-03-02T02:09:09;55.95;;;19.77;;
85318;SDS011;75722;49.004;12.120;2024-03-02T02:11:34;51.53;;;19.67;;
85318;SDS011;75722;49.004;12.120;2024-03-02T02:14:00;56.22;;;18.20;;
85318;SDS011;75722;49.004;12.120;2024-03-02T02:16:25;58.20;;;19.63;;
85318;SDS011;75722;49.004;12.120;2024-03-02T02:18:50;63.97;;;19.85;;
85318;SDS011;75722;49.004;12.120;2024-03-02T02:21:16;58.80;;;19.95;;
85318;SDS011;75722;49.004;12.120;2024-03-02T02:23:41;59.85;;;20.00;;
85318;SDS011;75722;49.004;12.120;2024-03-02T02:26:11;63.75;;;18.40;;
85318;SDS011;75722;49.004;12.120;2024-03-02T02:28:36;61.25;;;18.90;;
85318;SDS011;75722;49.004;12.120;2024-03-02T02:31:02;64.95;;;20.77;;
85318;SDS011;75722;49.004;12.120;2024-03-02T02:33:28;70.50;;;18.50;;
85318;SDS011;75722;49.004;12.120;2024-03-02T02:35:53;56.75;;;19.33;;
85318;SDS011;75722;49.004;12.120;2024-03-02T02:38:19;63.20;;;19.83;;
85318;SDS011;75722;49.004;12.120;2024-03-02T02:40:45;65.38;;;19.92;;
85318;SDS011;75722;49.004;12.120;2024-03-02T02:43:10;65.65;;;20.85;;
85318;SDS011;75722;49.004;12.120;2024-03-02T02:45:35;65.53;;;19.75;;
85318;SDS011;75722;49.004;12.120;2024-03-02T02:48:01;58.23;;;19.23;;
85318;SDS011;75722;49.004;12.120;2024-03-02T02:50:27;62.38;;;21.02;;
85318;SDS011;75722;49.004;12.120;2024-03-02T02:52:53;65.90;;;20.15;;
85318;SDS011;75722;49.004;12.120;2024-03-02T02:55:18;58.07;;;20.33;;
85318;SDS011;75722;49.004;12.120;2024-03-02T02:57:43;54.70;;;19.45;;
85318;SDS011;75722;49.004;12.120;2024-03-02T03:00:13;58.70;;;20.05;;
85318;SDS011;75722;49.004;12.120;2024-03-02T03:02:43;64.40;;;20.88;;
85318;SDS011;75722;49.004;12.120;2024-03-02T03:05:10;68.25;;;21.30;;
85318;SDS011;75722;49.004;12.120;2024-03-02T03:07:39;71.60;;;20.35;;
85318;SDS011;75722;49.004;12.120;2024-03-02T03:10:07;70.15;;;20.98;;
85318;SDS011;75722;49.004;12.120;2024-03-02T03:12:34;60.28;;;19.70;;
85318;SDS011;75722;49.004;12.120;2024-03-02T03:14:59;64.38;;;21.83;;
85318;SDS011;75722;49.004;12.120;2024-03-02T03:17:25;65.47;;;21.23;;
85318;SDS011;75722;49.004;12.120;2024-03-02T03:19:52;64.03;;;20.42;;
85318;SDS011;75722;49.004;12.120;2024-03-02T03:22:17;70.17;;;20.93;;
85318;SDS011;75722;49.004;12.120;2024-03-02T03:24:42;67.43;;;21.50;;
85318;SDS011;75722;49.004;12.120;2024-03-02T03:27:08;69.15;;;19.95;;
85318;SDS011;75722;49.004;12.120;2024-03-02T03:29:34;71.13;;;22.85;;
85318;SDS011;75722;49.004;12.120;2024-03-02T03:32:01;71.63;;;21.30;;
85318;SDS011;75722;49.004;12.120;2024-03-02T03:34:26;74.00;;;22.70;;
85318;SDS011;75722;49.004;12.120;2024-03-02T03:36:53;64.88;;;20.92;;
85318;SDS011;75722;49.004;12.120;2024-03-02T03:39:19;64.20;;;22.17;;
85318;SDS011;75722;49.004;12.120;2024-03-02T03:41:44;76.73;;;23.17;;
85318;SDS011;75722;49.004;12.120;2024-03-02T03:44:09;70.80;;;23.00;;
85318;SDS011;75722;49.004;12.120;2024-03-02T03:46:35;73.67;;;24.50;;
85318;SDS011;75722;49.004;12.120;2024-03-02T03:49:00;79.47;;;21.53;;
85318;SDS011;75722;49.004;12.120;2024-03-02T03:51:25;79.00;;;20.98;;
85318;SDS011;75722;49.004;12.120;2024-03-02T03:53:51;66.38;;;23.17;;
85318;SDS011;75722;49.004;12.120;2024-03-02T03:56:16;74.53;;;22.83;;
85318;SDS011;75722;49.004;12.120;2024-03-02T03:58:41;70.60;;;21.80;;
85318;SDS011;75722;49.004;12.120;2024-03-02T04:01:07;70.00;;;22.37;;
85318;SDS011;75722;49.004;12.120;2024-03-02T04:03:32;74.22;;;21.20;;
85318;SDS011;75722;49.004;12.120;2024-03-02T04:05:58;77.70;;;23.65;;
85318;SDS011;75722;49.004;12.120;2024-03-02T04:08:23;61.22;;;20.42;;
85318;SDS011;75722;49.004;12.120;2024-03-02T04:10:48;72.80;;;21.37;;
85318;SDS011;75722;49.004;12.120;2024-03-02T04:13:14;75.95;;;23.23;;
85318;SDS011;75722;49.004;12.120;2024-03-02T04:15:39;80.75;;;23.98;;
85318;SDS011;75722;49.004;12.120;2024-03-02T04:18:05;60.72;;;21.73;;
85318;SDS011;75722;49.004;12.120;2024-03-02T04:20:31;77.50;;;21.70;;
85318;SDS011;75722;49.004;12.120;2024-03-02T04:22:56;79.45;;;23.80;;
85318;SDS011;75722;49.004;12.120;2024-03-02T04:25:22;73.78;;;21.80;;
85318;SDS011;75722;49.004;12.120;2024-03-02T04:27:47;67.77;;;21.73;;
85318;SDS011;75722;49.004;12.120;2024-03-02T04:30:13;75.53;;;22.55;;
85318;SDS011;75722;49.004;12.120;2024-03-02T04:32:38;71.85;;;22.60;;
85318;SDS011;75722;49.004;12.120;2024-03-02T04:35:04;69.15;;;21.35;;
85318;SDS011;75722;49.004;12.120;2024-03-02T04:37:31;72.50;;;23.58;;
85318;SDS011;75722;49.004;12.120;2024-03-02T04:39:59;77.45;;;22.88;;
85318;SDS011;75722;49.004;12.120;2024-03-02T04:42:24;65.80;;;22.15;;
85318;SDS011;75722;49.004;12.120;2024-03-02T04:44:50;74.28;;;20.33;;
85318;SDS011;75722;49.004;12.120;2024-03-02T04:47:15;70.90;;;21.83;;
85318;SDS011;75722;49.004;12.120;2024-03-02T04:49:40;74.87;;;21.57;;
85318;SDS011;75722;49.004;12.120;2024-03-02T04:52:06;83.73;;;23.50;;
85318;SDS011;75722;49.004;12.120;2024-03-02T04:54:31;66.05;;;21.88;;
85318;SDS011;75722;49.004;12.120;2024-03-02T04:56:56;74.78;;;23.42;;
85318;SDS011;75722;49.004;12.120;2024-03-02T04:59:22;70.68;;;23.65;;
85318;SDS011;75722;49.004;12.120;2024-03-02T05:01:47;71.90;;;22.77;;
85318;SDS011;75722;49.004;12.120;2024-03-02T05:04:13;71.10;;;22.13;;
85318;SDS011;75722;49.004;12.120;2024-03-02T05:06:38;77.13;;;24.42;;
85318;SDS011;75722;49.004;12.120;2024-03-02T05:09:05;71.63;;;21.88;;
85318;SDS011;75722;49.004;12.120;2024-03-02T05:11:31;80.22;;;24.75;;
85318;SDS011;75722;49.004;12.120;2024-03-02T05:14:02;73.80;;;22.77;;
85318;SDS011;75722;49.004;12.120;2024-03-02T05:16:28;70.25;;;23.05;;
85318;SDS011;75722;49.004;12.120;2024-03-02T05:18:54;65.88;;;21.25;;
85318;SDS011;75722;49.004;12.120;2024-03-02T05:21:19;76.50;;;24.13;;
85318;SDS011;75722;49.004;12.120;2024-03-02T05:23:45;73.30;;;22.92;;
85318;SDS011;75722;49.004;12.120;2024-03-02T05:26:10;71.38;;;22.83;;
85318;SDS011;75722;49.004;12.120;2024-03-02T05:28:38;72.18;;;23.10;;
85318;SDS011;75722;49.004;12.120;2024-03-02T05:31:04;66.60;;;20.95;;
85318;SDS011;75722;49.004;12.120;2024-03-02T05:33:29;80.45;;;21.42;;
85318;SDS011;75722;49.004;12.120;2024-03-02T05:35:56;69.90;;;23.40;;
85318;SDS011;75722;49.004;12.120;2024-03-02T05:38:22;87.00;;;24.42;;
85318;SDS011;75722;49.004;12.120;2024-03-02T05:40:47;79.13;;;23.15;;
85318;SDS011;75722;49.004;12.120;2024-03-02T05:43:12;77.72;;;22.88;;
85318;SDS011;75722;49.004;12.120;2024-03-02T05:45:38;65.85;;;23.08;;
85318;SDS011;75722;49.004;12.120;2024-03-02T05:48:04;74.72;;;22.20;;
85318;SDS011;75722;49.004;12.120;2024-03-02T05:50:34;69.53;;;21.25;;
85318;SDS011;75722;49.004;12.120;2024-03-02T05:52:59;75.50;;;22.70;;
85318;SDS011;75722;49.004;12.120;2024-03-02T05:55:25;73.43;;;21.90;;
85318;SDS011;75722;49.004;12.120;2024-03-02T05:57:50;67.77;;;23.83;;
85318;SDS011;75722;49.004;12.120;2024-03-02T06:00:42;70.13;;;23.88;;
85318;SDS011;75722;49.004;12.120;2024-03-02T06:03:07;75.57;;;23.58;;
85318;SDS011;75722;49.004;12.120;2024-03-02T06:05:34;70.47;;;21.52;;
85318;SDS011;75722;49.004;12.120;2024-03-02T06:07:59;75.13;;;22.00;;
85318;SDS011;75722;49.004;12.120;2024-03-02T06:10:25;77.55;;;23.42;;
85318;SDS011;75722;49.004;12.120;2024-03-02T06:12:50;76.82;;;22.65;;
85318;SDS011;75722;49.004;12.120;2024-03-02T06:15:16;74.80;;;22.42;;
85318;SDS011;75722;49.004;12.120;2024-03-02T06:17:42;73.13;;;21.25;;
85318;SDS011;75722;49.004;12.120;2024-03-02T06:20:07;76.05;;;24.92;;
85318;SDS011;75722;49.004;12.120;2024-03-02T06:22:33;76.43;;;23.80;;
85318;SDS011;75722;49.004;12.120;2024-03-02T06:24:59;79.57;;;24.73;;
85318;SDS011;75722;49.004;12.120;2024-03-02T06:27:25;71.72;;;21.52;;
85318;SDS011;75722;49.004;12.120;2024-03-02T06:29:50;77.70;;;21.98;;
85318;SDS011;75722;49.004;12.120;2024-03-02T06:32:16;79.00;;;23.33;;
85318;SDS011;75722;49.004;12.120;2024-03-02T06:34:42;80.50;;;24.00;;
85318;SDS011;75722;49.004;12.120;2024-03-02T06:37:07;86.38;;;23.67;;
85318;SDS011;75722;49.004;12.120;2024-03-02T06:39:32;74.23;;;21.93;;
85318;SDS011;75722;49.004;12.120;2024-03-02T06:41:59;75.18;;;23.33;;
85318;SDS011;75722;49.004;12.120;2024-03-02T06:44:25;81.72;;;23.33;;
85318;SDS011;75722;49.004;12.120;2024-03-02T06:46:50;78.40;;;23.40;;
85318;SDS011;75722;49.004;12.120;2024-03-02T06:49:15;64.87;;;21.03;;
85318;SDS011;75722;49.004;12.120;2024-03-02T06:51:43;79.18;;;22.35;;
85318;SDS011;75722;49.004;12.120;2024-03-02T06:54:08;75.30;;;23.08;;
85318;SDS011;75722;49.004;12.120;2024-03-02T06:56:34;68.45;;;21.75;;
85318;SDS011;75722;49.004;12.120;2024-03-02T06:58:59;77.38;;;22.90;;
85318;SDS011;75722;49.004;12.120;2024-03-02T07:01:24;84.97;;;23.77;;
85318;SDS011;75722;49.004;12.120;2024-03-02T07:03:51;67.82;;;19.73;;
85318;SDS011;75722;49.004;12.120;2024-03-02T07:06:16;76.97;;;22.05;;
85318;SDS011;75722;49.004;12.120;2024-03-02T07:08:42;73.28;;;22.50;;
85318;SDS011;75722;49.004;12.120;2024-03-02T07:11:07;87.30;;;24.30;;
85318;SDS011;75722;49.004;12.120;2024-03-02T07:13:32;81.03;;;23.73;;
85318;SDS011;75722;49.004;12.120;2024-03-02T07:15:58;90.73;;;24.53;;
85318;SDS011;75722;49.004;12.120;2024-03-02T07:18:29;75.93;;;23.08;;
85318;SDS011;75722;49.004;12.120;2024-03-02T07:20:56;83.60;;;22.98;;
85318;SDS011;75722;49.004;12.120;2024-03-02T07:23:24;83.22;;;23.75;;
85318;SDS011;75722;49.004;12.120;2024-03-02T07:25:52;49.80;;;17.80;;
85318;SDS011;75722;49.004;12.120;2024-03-02T07:28:20;72.90;;;23.45;;
85318;SDS011;75722;49.004;12.120;2024-03-02T07:30:45;65.03;;;21.73;;
85318;SDS011;75722;49.004;12.120;2024-03-02T07:33:11;66.18;;;19.98;;
85318;SDS011;75722;49.004;12.120;2024-03-02T07:35:36;70.97;;;23.10;;
85318;SDS011;75722;49.004;12.120;2024-03-02T07:38:01;70.00;;;23.33;;
85318;SDS011;75722;49.004;12.120;2024-03-02T07:40:27;67.82;;;22.20;;
85318;SDS011;75722;49.004;12.120;2024-03-02T07:42:52;60.33;;;20.77;;
85318;SDS011;75722;49.004;12.120;2024-03-02T07:45:18;72.78;;;22.73;;
85318;SDS011;75722;49.004;12.120;2024-03-02T07:47:43;60.38;;;20.08;;
85318;SDS011;75722;49.004;12.120;2024-03-02T07:50:09;63.95;;;21.58;;
85318;SDS011;75722;49.004;12.120;2024-03-02T07:52:35;73.90;;;20.95;;
85318;SDS011;75722;49.004;12.120;2024-03-02T07:55:00;67.03;;;21.10;;
85318;SDS011;75722;49.004;12.120;2024-03-02T07:57:25;70.82;;;22.95;;
85318;SDS011;75722;49.004;12.120;2024-03-02T07:59:51;64.97;;;20.98;;
85318;SDS011;75722;49.004;12.120;2024-03-02T08:02:16;67.68;;;22.40;;
85318;SDS011;75722;49.004;12.120;2024-03-02T08:04:42;59.53;;;19.67;;
85318;SDS011;75722;49.004;12.120;2024-03-02T08:07:07;61.90;;;20.08;;
85318;SDS011;75722;49.004;12.120;2024-03-02T08:09:34;56.35;;;19.10;;
85318;SDS011;75722;49.004;12.120;2024-03-02T08:11:59;47.60;;;17.45;;
85318;SDS011;75722;49.004;12.120;2024-03-02T08:14:25;60.83;;;19.50;;
85318;SDS011;75722;49.004;12.120;2024-03-02T08:16:50;55.03;;;19.33;;
85318;SDS011;75722;49.004;12.120;2024-03-02T08:19:15;54.63;;;18.77;;
85318;SDS011;75722;49.004;12.120;2024-03-02T08:21:42;57.70;;;19.67;;
85318;SDS011;75722;49.004;12.120;2024-03-02T08:24:08;61.03;;;19.95;;
85318;SDS011;75722;49.004;12.120;2024-03-02T08:26:33;49.85;;;18.00;;
85318;SDS011;75722;49.004;12.120;2024-03-02T08:28:59;55.25;;;19.48;;
85318;SDS011;75722;49.004;12.120;2024-03-02T08:31:26;61.50;;;18.38;;
85318;SDS011;75722;49.004;12.120;2024-03-02T08:33:52;54.10;;;19.60;;
85318;SDS011;75722;49.004;12.120;2024-03-02T08:36:17;60.33;;;20.50;;
85318;SDS011;75722;49.004;12.120;2024-03-02T08:38:43;62.05;;;20.10;;
85318;SDS011;75722;49.004;12.120;2024-03-02T08:41:09;52.05;;;18.88;;
85318;SDS011;75722;49.004;12.120;2024-03-02T08:43:34;62.53;;;19.45;;
85318;SDS011;75722;49.004;12.120;2024-03-02T08:46:00;60.45;;;20.27;;
85318;SDS011;75722;49.004;12.120;2024-03-02T08:48:25;59.28;;;20.60;;
85318;SDS011;75722;49.004;12.120;2024-03-02T08:50:50;53.15;;;18.17;;
85318;SDS011;75722;49.004;12.120;2024-03-02T08:53:16;54.45;;;18.75;;
85318;SDS011;75722;49.004;12.120;2024-03-02T08:55:46;63.63;;;20.42;;
85318;SDS011;75722;49.004;12.120;2024-03-02T08:58:12;63.50;;;22.15;;
85318;SDS011;75722;49.004;12.120;2024-03-02T09:00:37;62.97;;;19.83;;
85318;SDS011;75722;49.004;12.120;2024-03-02T09:03:03;56.45;;;20.55;;
85318;SDS011;75722;49.004;12.120;2024-03-02T09:05:29;61.53;;;21.17;;
85318;SDS011;75722;49.004;12.120;2024-03-02T09:07:54;63.33;;;19.83;;
85318;SDS011;75722;49.004;12.120;2024-03-02T09:10:20;56.03;;;20.88;;
85318;SDS011;75722;49.004;12.120;2024-03-02T09:12:46;54.45;;;19.48;;
85318;SDS011;75722;49.004;12.120;2024-03-02T09:15:11;58.60;;;19.77;;
85318;SDS011;75722;49.004;12.120;2024-03-02T09:17:37;51.42;;;19.65;;
85318;SDS011;75722;49.004;12.120;2024-03-02T09:20:02;49.40;;;18.75;;
85318;SDS011;75722;49.004;12.120;2024-03-02T09:22:29;54.83;;;19.30;;
85318;SDS011;75722;49.004;12.120;2024-03-02T09:24:55;54.65;;;18.60;;
85318;SDS011;75722;49.004;12.120;2024-03-02T09:27:20;48.90;;;18.70;;
85318;SDS011;75722;49.004;12.120;2024-03-02T09:29:46;54.90;;;18.63;;
85318;SDS011;75722;49.004;12.120;2024-03-02T09:32:14;53.70;;;18.70;;
85318;SDS011;75722;49.004;12.120;2024-03-02T09:34:40;49.25;;;16.83;;
85318;SDS011;75722;49.004;12.120;2024-03-02T09:37:06;61.70;;;20.92;;
85318;SDS011;75722;49.004;12.120;2024-03-02T09:39:31;58.50;;;19.95;;
85318;SDS011;75722;49.004;12.120;2024-03-02T09:42:00;54.10;;;18.05;;
85318;SDS011;75722;49.004;12.120;2024-03-02T09:44:26;56.58;;;20.02;;
85318;SDS011;75722;49.004;12.120;2024-03-02T09:46:51;54.05;;;19.73;;
85318;SDS011;75722;49.004;12.120;2024-03-02T09:49:17;46.88;;;18.33;;
85318;SDS011;75722;49.004;12.120;2024-03-02T09:51:49;51.08;;;17.88;;
85318;SDS011;75722;49.004;12.120;2024-03-02T09:54:17;43.75;;;17.73;;
85318;SDS011;75722;49.004;12.120;2024-03-02T09:56:43;48.80;;;18.63;;
85318;SDS011;75722;49.004;12.120;2024-03-02T09:59:09;52.28;;;19.35;;
85318;SDS011;75722;49.004;12.120;2024-03-02T10:01:35;44.55;;;17.67;;
85318;SDS011;75722;49.004;12.120;2024-03-02T10:04:00;50.87;;;18.20;;
85318;SDS011;75722;49.004;12.120;2024-03-02T10:06:27;51.67;;;18.40;;
85318;SDS011;75722;49.004;12.120;2024-03-02T10:08:54;50.92;;;18.10;;
85318;SDS011;75722;49.004;12.120;2024-03-02T10:14:10;52.08;;;18.30;;
85318;SDS011;75722;49.004;12.120;2024-03-02T10:16:37;44.25;;;17.33;;
85318;SDS011;75722;49.004;12.120;2024-03-02T10:21:46;45.53;;;17.00;;
85318;SDS011;75722;49.004;12.120;2024-03-02T10:24:16;40.92;;;15.50;;
85318;SDS011;75722;49.004;12.120;2024-03-02T10:26:42;41.83;;;14.88;;
85318;SDS011;75722;49.004;12.120;2024-03-02T10:29:08;49.45;;;17.67;;
85318;SDS011;75722;49.004;12.120;2024-03-02T10:31:36;51.03;;;17.48;;
85318;SDS011;75722;49.004;12.120;2024-03-02T10:34:02;46.10;;;16.02;;
85318;SDS011;75722;49.004;12.120;2024-03-02T10:36:28;45.00;;;14.63;;
85318;SDS011;75722;49.004;12.120;2024-03-02T10:38:55;48.13;;;15.75;;
85318;SDS011;75722;49.004;12.120;2024-03-02T10:41:24;45.38;;;16.15;;
85318;SDS011;75722;49.004;12.120;2024-03-02T10:43:54;38.38;;;14.68;;
85318;SDS011;75722;49.004;12.120;2024-03-02T10:46:27;53.60;;;17.70;;
85318;SDS011;75722;49.004;12.120;2024-03-02T10:48:56;47.67;;;15.43;;
85318;SDS011;75722;49.004;12.120;2024-03-02T10:51:24;44.47;;;16.95;;
85318;SDS011;75722;49.004;12.120;2024-03-02T10:53:51;51.00;;;16.17;;
85318;SDS011;75722;49.004;12.120;2024-03-02T10:56:20;51.58;;;17.23;;
85318;SDS011;75722;49.004;12.120;2024-03-02T10:58:53;44.22;;;15.35;;
85318;SDS011;75722;49.004;12.120;2024-03-02T11:01:25;42.53;;;14.60;;
85318;SDS011;75722;49.004;12.120;2024-03-02T11:03:51;44.00;;;14.77;;
85318;SDS011;75722;49.004;12.120;2024-03-02T11:06:17;41.83;;;15.25;;
85318;SDS011;75722;49.004;12.120;2024-03-02T11:08:42;45.30;;;15.70;;
85318;SDS011;75722;49.004;12.120;2024-03-02T11:11:15;42.38;;;16.40;;
85318;SDS011;75722;49.004;12.120;2024-03-02T11:13:48;38.63;;;14.57;;
85318;SDS011;75722;49.004;12.120;2024-03-02T11:16:36;35.55;;;14.18;;
85318;SDS011;75722;49.004;12.120;2024-03-02T11:19:11;39.63;;;15.40;;
85318;SDS011;75722;49.004;12.120;2024-03-02T11:21:38;45.78;;;16.02;;
85318;SDS011;75722;49.004;12.120;2024-03-02T11:26:49;39.45;;;14.38;;
85318;SDS011;75722;49.004;12.120;2024-03-02T11:32:00;42.53;;;14.50;;
85318;SDS011;75722;49.004;12.120;2024-03-02T11:36:56;40.13;;;14.90;;
85318;SDS011;75722;49.004;12.120;2024-03-02T11:39:21;40.40;;;14.05;;
85318;SDS011;75722;49.004;12.120;2024-03-02T11:41:47;38.53;;;14.63;;
85318;SDS011;75722;49.004;12.120;2024-03-02T11:44:12;36.28;;;14.60;;
85318;SDS011;75722;49.004;12.120;2024-03-02T11:46:40;37.30;;;14.18;;
85318;SDS011;75722;49.004;12.120;2024-03-02T11:49:05;33.53;;;13.40;;
85318;SDS011;75722;49.004;12.120;2024-03-02T11:51:32;39.40;;;13.38;;
85318;SDS011;75722;49.004;12.120;2024-03-02T11:53:59;35.88;;;14.52;;
85318;SDS011;75722;49.004;12.120;2024-03-02T11:56:25;36.88;;;14.05;;
85318;SDS011;75722;49.004;12.120;2024-03-02T11:58:53;37.05;;;14.27;;
85318;SDS011;75722;49.004;12.120;2024-03-02T12:01:19;43.53;;;15.35;;
85318;SDS011;75722;49.004;12.120;2024-03-02T12:03:44;34.45;;;13.23;;
85318;SDS011;75722;49.004;12.120;2024-03-02T12:06:11;43.95;;;15.27;;
85318;SDS011;75722;49.004;12.120;2024-03-02T12:08:38;43.35;;;14.85;;
85318;SDS011;75722;49.004;12.120;2024-03-02T12:11:03;36.25;;;14.23;;
85318;SDS011;75722;49.004;12.120;2024-03-02T12:13:29;35.15;;;13.82;;
85318;SDS011;75722;49.004;12.120;2024-03-02T12:15:55;35.42;;;14.07;;
85318;SDS011;75722;49.004;12.120;2024-03-02T12:18:24;38.65;;;14.32;;
85318;SDS011;75722;49.004;12.120;2024-03-02T12:20:50;38.38;;;14.48;;
85318;SDS011;75722;49.004;12.120;2024-03-02T12:23:23;38.22;;;13.77;;
85318;SDS011;75722;49.004;12.120;2024-03-02T12:25:49;38.25;;;14.45;;
85318;SDS011;75722;49.004;12.120;2024-03-02T12:28:14;34.03;;;13.25;;
85318;SDS011;75722;49.004;12.120;2024-03-02T12:30:40;42.63;;;15.48;;
85318;SDS011;75722;49.004;12.120;2024-03-02T12:33:05;40.00;;;14.93;;
85318;SDS011;75722;49.004;12.120;2024-03-02T12:35:31;36.00;;;13.82;;
85318;SDS011;75722;49.004;12.120;2024-03-02T12:37:56;38.03;;;14.52;;
85318;SDS011;75722;49.004;12.120;2024-03-02T12:40:22;34.95;;;13.82;;
85318;SDS011;75722;49.004;12.120;2024-03-02T12:42:48;32.03;;;14.02;;
85318;SDS011;75722;49.004;12.120;2024-03-02T12:45:14;39.10;;;16.42;;
85318;SDS011;75722;49.004;12.120;2024-03-02T12:47:40;37.10;;;14.23;;
85318;SDS011;75722;49.004;12.120;2024-03-02T12:50:07;36.20;;;14.05;;
85318;SDS011;75722;49.004;12.120;2024-03-02T12:52:33;33.17;;;13.52;;
85318;SDS011;75722;49.004;12.120;2024-03-02T12:55:03;35.22;;;14.63;;
85318;SDS011;75722;49.004;12.120;2024-03-02T12:57:30;33.70;;;14.38;;
85318;SDS011;75722;49.004;12.120;2024-03-02T13:00:00;32.70;;;14.25;;
85318;SDS011;75722;49.004;12.120;2024-03-02T13:02:36;37.95;;;14.43;;
85318;SDS011;75722;49.004;12.120;2024-03-02T13:05:06;33.47;;;14.13;;
85318;SDS011;75722;49.004;12.120;2024-03-02T13:07:36;36.05;;;14.18;;
85318;SDS011;75722;49.004;12.120;2024-03-02T13:10:03;39.85;;;15.30;;
85318;SDS011;75722;49.004;12.120;2024-03-02T13:12:29;38.55;;;14.45;;
85318;SDS011;75722;49.004;12.120;2024-03-02T13:14:55;34.35;;;14.20;;
85318;SDS011;75722;49.004;12.120;2024-03-02T13:17:23;40.55;;;13.68;;
85318;SDS011;75722;49.004;12.120;2024-03-02T13:19:52;32.80;;;13.38;;
85318;SDS011;75722;49.004;12.120;2024-03-02T13:22:20;38.90;;;14.88;;
85318;SDS011;75722;49.004;12.120;2024-03-02T13:24:46;35.97;;;14.50;;
85318;SDS011;75722;49.004;12.120;2024-03-02T13:27:12;35.55;;;12.75;;
85318;SDS011;75722;49.004;12.120;2024-03-02T13:29:38;32.22;;;13.88;;
85318;SDS011;75722;49.004;12.120;2024-03-02T13:32:03;31.35;;;13.57;;
85318;SDS011;75722;49.004;12.120;2024-03-02T13:34:29;36.38;;;13.38;;
85318;SDS011;75722;49.004;12.120;2024-03-02T13:36:54;32.95;;;13.00;;
85318;SDS011;75722;49.004;12.120;2024-03-02T13:39:19;35.08;;;12.70;;
85318;SDS011;75722;49.004;12.120;2024-03-02T13:41:45;34.88;;;13.75;;
85318;SDS011;75722;49.004;12.120;2024-03-02T13:44:17;31.38;;;12.88;;
85318;SDS011;75722;49.004;12.120;2024-03-02T13:46:44;33.92;;;13.98;;
85318;SDS011;75722;49.004;12.120;2024-03-02T13:49:11;36.28;;;14.45;;
85318;SDS011;75722;49.004;12.120;2024-03-02T13:51:36;36.58;;;14.05;;
85318;SDS011;75722;49.004;12.120;2024-03-02T13:54:02;35.63;;;12.43;;
85318;SDS011;75722;49.004;12.120;2024-03-02T13:56:28;37.80;;;13.95;;
85318;SDS011;75722;49.004;12.120;2024-03-02T13:58:54;35.00;;;13.18;;
85318;SDS011;75722;49.004;12.120;2024-03-02T14:01:19;37.08;;;13.05;;
85318;SDS011;75722;49.004;12.120;2024-03-02T14:03:45;34.60;;;11.48;;
85318;SDS011;75722;49.004;12.120;2024-03-02T14:06:11;32.97;;;13.05;;
85318;SDS011;75722;49.004;12.120;2024-03-02T14:08:37;41.83;;;13.10;;
85318;SDS011;75722;49.004;12.120;2024-03-02T14:11:02;31.58;;;13.05;;
85318;SDS011;75722;49.004;12.120;2024-03-02T14:13:28;42.95;;;14.38;;
85318;SDS011;75722;49.004;12.120;2024-03-02T14:15:54;41.88;;;13.60;;
85318;SDS011;75722;49.004;12.120;2024-03-02T14:18:19;42.63;;;13.80;;
85318;SDS011;75722;49.004;12.120;2024-03-02T14:20:46;34.90;;;12.07;;
85318;SDS011;75722;49.004;12.120;2024-03-02T14:23:17;35.55;;;12.07;;
85318;SDS011;75722;49.004;12.120;2024-03-02T14:25:42;36.90;;;13.77;;